sensor_id;sensor_type;location;lat;lon;timestamp;P1;durP1;ratioP1;P2;durP2;ratioP2
72479;SDS011;60503;43.540;-5.510;2022-07-19T17:44:30;13.30;;;2.60;;
72479;SDS011;60503;43.540;-5.510;2022-07-19T17:46:56;8.77;;;2.45;;
72479;SDS011;60503;43.540;-5.510;2022-07-19T17:49:22;7.75;;;2.42;;
72479;SDS011;60503;43.540;-5.510;2022-07-19T17:51:47;14.25;;;3.78;;
72479;SDS011;60503;43.540;-5.510;2022-07-19T17:54:13;15.80;;;2.65;;
72479;SDS011;60503;43.540;-5.510;2022-07-19T17:56:39;9.40;;;2.38;;
72479;SDS011;60503;43.540;-5.510;2022-07-19T17:59:04;9.40;;;2.60;;
72479;SDS011;60503;43.540;-5.510;2022-07-19T18:01:30;6.80;;;2.40;;
72479;SDS011;60503;43.540;-5.510;2022-07-19T18:03:55;13.90;;;3.10;;
72479;SDS011;60503;43.540;-5.510;2022-07-19T18:06:21;9.90;;;2.75;;
72479;SDS011;60503;43.540;-5.510;2022-07-19T18:08:47;11.68;;;2.40;;
72479;SDS011;60503;43.540;-5.510;2022-07-19T18:11:12;15.05;;;3.10;;
72479;SDS011;60503;43.540;-5.510;2022-07-19T18:13:38;13.45;;;3.35;;
72479;SDS011;60503;43.540;-5.510;2022-07-19T18:16:04;12.27;;;2.92;;
72479;SDS011;60503;43.540;-5.510;2022-07-19T18:18:32;13.98;;;3.45;;
72479;SDS011;60503;43.540;-5.510;2022-07-19T18:20:58;13.48;;;3.30;;
72479;SDS011;60503;43.540;-5.510;2022-07-19T18:23:23;11.23;;;3.33;;
72479;SDS011;60503;43.540;-5.510;2022-07-19T18:25:49;12.85;;;3.40;;
72479;SDS011;60503;43.540;-5.510;2022-07-19T18:28:14;21.65;;;3.63;;
72479;SDS011;60503;43.540;-5.510;2022-07-19T18:30:40;18.88;;;3.03;;
72479;SDS011;60503;43.540;-5.510;2022-07-19T18:33:06;16.25;;;3.75;;
72479;SDS011;60503;43.540;-5.510;2022-07-19T18:35:32;22.60;;;3.83;;
72479;SDS011;60503;43.540;-5.510;2022-07-19T18:37:57;20.88;;;4.03;;
72479;SDS011;60503;43.540;-5.510;2022-07-19T18:40:23;16.08;;;3.45;;
72479;SDS011;60503;43.540;-5.510;2022-07-19T18:42:49;21.90;;;3.60;;
72479;SDS011;60503;43.540;-5.510;2022-07-19T18:45:15;23.27;;;3.50;;
72479;SDS011;60503;43.540;-5.510;2022-07-19T18:47:41;13.45;;;3.28;;
72479;SDS011;60503;43.540;-5.510;2022-07-19T18:50:07;18.38;;;3.55;;
72479;SDS011;60503;43.540;-5.510;2022-07-19T18:52:33;19.02;;;3.88;;
72479;SDS011;60503;43.540;-5.510;2022-07-19T18:54:59;21.88;;;4.75;;
72479;SDS011;60503;43.540;-5.510;2022-07-19T18:57:24;27.83;;;4.47;;
72479;SDS011;60503;43.540;-5.510;2022-07-19T18:59:50;15.05;;;3.40;;
72479;SDS011;60503;43.540;-5.510;2022-07-19T19:02:15;24.13;;;3.72;;
72479;SDS011;60503;43.540;-5.510;2022-07-19T19:04:41;23.42;;;4.43;;
72479;SDS011;60503;43.540;-5.510;2022-07-19T19:07:06;21.60;;;3.47;;
72479;SDS011;60503;43.540;-5.510;2022-07-19T19:09:32;16.10;;;3.45;;
72479;SDS011;60503;43.540;-5.510;2022-07-19T19:15:19;16.80;;;4.05;;
72479;SDS011;60503;43.540;-5.510;2022-07-19T19:17:45;17.65;;;3.67;;
72479;SDS011;60503;43.540;-5.510;2022-07-19T19:20:11;18.42;;;4.18;;
72479;SDS011;60503;43.540;-5.510;2022-07-19T19:22:38;18.30;;;3.83;;
72479;SDS011;60503;43.540;-5.510;2022-07-19T19:25:03;20.33;;;4.10;;
72479;SDS011;60503;43.540;-5.510;2022-07-19T19:27:29;21.92;;;4.72;;
72479;SDS011;60503;43.540;-5.510;2022-07-19T19:29:55;16.08;;;3.72;;
72479;SDS011;60503;43.540;-5.510;2022-07-19T19:32:20;17.77;;;4.63;;
72479;SDS011;60503;43.540;-5.510;2022-07-19T19:34:46;16.38;;;3.85;;
72479;SDS011;60503;43.540;-5.510;2022-07-19T19:37:12;18.90;;;4.00;;
72479;SDS011;60503;43.540;-5.510;2022-07-19T19:39:37;15.20;;;3.55;;
72479;SDS011;60503;43.540;-5.510;2022-07-19T19:42:03;24.50;;;4.63;;
72479;SDS011;60503;43.540;-5.510;2022-07-19T19:44:30;20.27;;;3.80;;
72479;SDS011;60503;43.540;-5.510;2022-07-19T19:46:56;24.85;;;4.22;;
72479;SDS011;60503;43.540;-5.510;2022-07-19T19:49:21;15.77;;;4.13;;
72479;SDS011;60503;43.540;-5.510;2022-07-19T19:51:47;19.33;;;4.05;;
72479;SDS011;60503;43.540;-5.510;2022-07-19T19:54:13;15.88;;;3.50;;
72479;SDS011;60503;43.540;-5.510;2022-07-19T19:56:38;18.13;;;3.97;;
72479;SDS011;60503;43.540;-5.510;2022-07-19T19:59:04;18.38;;;3.85;;
72479;SDS011;60503;43.540;-5.510;2022-07-19T20:01:30;14.82;;;3.53;;
72479;SDS011;60503;43.540;-5.510;2022-07-19T20:03:55;23.38;;;3.95;;
72479;SDS011;60503;43.540;-5.510;2022-07-19T20:06:21;21.90;;;4.30;;
